Time;durP1;ratioP1;P1;durP2;ratioP2;P2;SDS_P1;SDS_P2;PMS_P1;PMS_P2;Temp;Humidity;BMP_temperature;BMP_pressure;BME280_temperature;BME280_humidity;BME280_pressure;Samples;Min_cycle;Max_cycle;Signal;HPM_P1;HPM_P2
2021/11/25 00:02:15;;;;;;;60.58;31.52;;;5.40;99.90;;;;;;4895321;29;20047;-84
2021/11/25 00:04:43;;;;;;;57.80;30.83;;;5.40;99.90;;;;;;4891762;29;20659;-84
2021/11/25 00:07:12;;;;;;;60.13;32.13;;;5.40;99.90;;;;;;4877558;29;20040;-83
2021/11/25 00:09:37;;;;;;;65.05;32.92;;;5.40;99.90;;;;;;4875067;29;20040;-84
2021/11/25 00:12:04;;;;;;;62.35;32.88;;;5.40;99.90;;;;;;4870294;29;20051;-84
2021/11/25 00:14:30;;;;;;;67.68;33.95;;;5.40;99.90;;;;;;4868595;29;20135;-84
2021/11/25 00:16:55;;;;;;;63.75;33.40;;;5.40;99.90;;;;;;4859504;29;20103;-83
2021/11/25 00:19:22;;;;;;;67.35;35.00;;;5.40;99.90;;;;;;4874548;29;20087;-83
2021/11/25 00:21:52;;;;;;;68.85;35.88;;;5.40;99.90;;;;;;4876289;29;20531;-84
2021/11/25 00:24:21;;;;;;;69.45;36.13;;;5.40;99.90;;;;;;4887651;29;20648;-84
2021/11/25 00:26:50;;;;;;;69.88;35.42;;;5.50;99.90;;;;;;4899458;29;20107;-84
2021/11/25 00:29:20;;;;;;;72.57;35.25;;;5.50;99.90;;;;;;4902213;29;20122;-84
2021/11/25 00:31:48;;;;;;;72.68;35.90;;;5.40;99.90;;;;;;4928032;29;20056;-84
2021/11/25 00:34:15;;;;;;;77.65;37.33;;;5.50;99.90;;;;;;4879035;29;20042;-85
2021/11/25 00:36:41;;;;;;;77.13;36.92;;;5.40;99.90;;;;;;4896312;29;20135;-83
2021/11/25 00:39:07;;;;;;;78.20;37.30;;;5.50;99.90;;;;;;4900702;29;20159;-84
2021/11/25 00:41:33;;;;;;;75.22;37.35;;;5.50;99.90;;;;;;4892080;29;20912;-84
2021/11/25 00:43:59;;;;;;;71.88;36.03;;;5.50;99.90;;;;;;4884425;29;20055;-83
2021/11/25 00:46:51;;;;;;;70.90;36.00;;;5.50;99.90;;;;;;4903546;29;20059;-84
2021/11/25 00:49:17;;;;;;;78.43;38.28;;;5.50;99.90;;;;;;4881407;29;20052;-84
2021/11/25 00:51:52;;;;;;;79.03;36.95;;;5.50;99.90;;;;;;4882300;29;20403;-84
2021/11/25 00:54:18;;;;;;;80.72;37.85;;;5.50;99.90;;;;;;4887407;29;20051;-85
2021/11/25 00:56:47;;;;;;;76.43;36.90;;;5.50;99.90;;;;;;4876014;29;20071;-85
2021/11/25 00:59:14;;;;;;;84.00;39.00;;;5.50;99.90;;;;;;4893729;29;20093;-84
2021/11/25 01:01:46;;;;;;;80.72;38.40;;;5.40;99.90;;;;;;4884508;29;20968;-84
2021/11/25 01:04:12;;;;;;;85.78;40.17;;;5.40;99.90;;;;;;4888127;29;20423;-84
2021/11/25 01:06:39;;;;;;;89.82;40.78;;;5.40;99.90;;;;;;4888691;29;20122;-84
2021/11/25 01:09:08;;;;;;;83.28;40.72;;;5.50;99.90;;;;;;4909137;28;20972;-83
2021/11/25 01:11:35;;;;;;;86.88;40.67;;;5.40;99.90;;;;;;4903141;29;20039;-85
2021/11/25 01:14:04;;;;;;;86.80;41.83;;;5.40;99.90;;;;;;4868302;29;20051;-85
2021/11/25 01:16:33;;;;;;;86.53;40.58;;;5.50;99.90;;;;;;4885378;29;20035;-84
2021/11/25 01:18:59;;;;;;;92.25;41.42;;;5.50;99.90;;;;;;4876707;29;20106;-85
2021/11/25 01:21:34;;;;;;;91.40;42.70;;;5.50;99.90;;;;;;4870621;29;20040;-84
2021/11/25 01:24:09;;;;;;;98.70;42.20;;;5.50;99.90;;;;;;4876029;29;20426;-84
2021/11/25 01:26:35;;;;;;;94.30;43.03;;;5.40;99.90;;;;;;4885526;29;20046;-85
2021/11/25 01:29:01;;;;;;;97.53;43.03;;;5.50;99.90;;;;;;4885130;29;20102;-84
2021/11/25 01:31:27;;;;;;;97.75;43.42;;;5.50;99.90;;;;;;4897841;29;20479;-85
2021/11/25 01:33:53;;;;;;;99.78;43.97;;;5.50;99.90;;;;;;4902531;29;20064;-84
2021/11/25 01:36:19;;;;;;;101.93;45.10;;;5.50;99.90;;;;;;4879912;29;20039;-85
2021/11/25 01:38:45;;;;;;;105.32;46.05;;;5.50;99.90;;;;;;4885321;29;20368;-84
2021/11/25 01:41:11;;;;;;;102.78;44.78;;;5.50;99.90;;;;;;4866190;29;20044;-83
2021/11/25 01:43:43;;;;;;;109.10;46.40;;;5.50;99.90;;;;;;4872341;29;20040;-84
2021/11/25 01:46:21;;;;;;;110.13;44.88;;;5.60;99.90;;;;;;4882125;29;20126;-85
2021/11/25 01:48:56;;;;;;;104.88;46.45;;;5.50;99.90;;;;;;4896032;29;20055;-84
2021/11/25 01:51:24;;;;;;;105.13;44.65;;;5.50;99.90;;;;;;4883427;29;20043;-84
2021/11/25 01:53:50;;;;;;;114.78;45.95;;;5.60;99.90;;;;;;4873280;29;20040;-84
2021/11/25 01:56:37;;;;;;;107.30;45.35;;;5.60;99.90;;;;;;4867208;29;20067;-86
2021/11/25 01:59:24;;;;;;;114.55;46.10;;;5.60;99.90;;;;;;4917048;28;20472;-86
2021/11/25 02:02:03;;;;;;;100.55;44.65;;;5.50;99.90;;;;;;4883649;29;20282;-86
2021/11/25 02:04:30;;;;;;;111.15;45.45;;;5.60;99.90;;;;;;4872989;29;20455;-84
2021/11/25 02:06:55;;;;;;;109.07;45.60;;;5.50;99.90;;;;;;4899023;29;20043;-85
2021/11/25 02:09:24;;;;;;;103.43;45.17;;;5.60;99.90;;;;;;4880853;29;20047;-85
2021/11/25 02:11:50;;;;;;;106.00;44.72;;;5.60;99.90;;;;;;4897807;29;20035;-86
2021/11/25 02:14:21;;;;;;;111.00;44.17;;;5.60;99.90;;;;;;4866934;29;20499;-85
2021/11/25 02:20:49;;;;;;;113.15;46.47;;;5.60;99.90;;;;;;4840279;29;20056;-85
2021/11/25 02:23:43;;;;;;;107.05;45.00;;;5.60;99.90;;;;;;4826188;29;20053;-86
2021/11/25 02:26:10;;;;;;;112.30;45.40;;;5.60;99.90;;;;;;4900378;29;20051;-89
2021/11/25 02:28:41;;;;;;;112.65;44.08;;;5.50;99.90;;;;;;4875474;29;20523;-84
2021/11/25 02:31:17;;;;;;;116.95;48.60;;;5.60;99.90;;;;;;4887388;29;20134;-86
2021/11/25 02:33:44;;;;;;;116.28;43.85;;;5.60;99.90;;;;;;4899217;29;20115;-85
2021/11/25 02:36:10;;;;;;;109.00;44.92;;;5.60;99.90;;;;;;4884586;29;20507;-85
2021/11/25 02:38:56;;;;;;;109.65;45.38;;;5.60;99.90;;;;;;4920348;28;20052;-84
2021/11/25 02:41:32;;;;;;;111.07;44.40;;;5.60;99.90;;;;;;4919690;28;20027;-86
2021/11/25 02:43:58;;;;;;;115.03;46.75;;;5.60;99.90;;;;;;4894952;29;20043;-84
2021/11/25 02:46:24;;;;;;;115.10;45.45;;;5.60;99.90;;;;;;4876456;29;20050;-86
2021/11/25 02:49:21;;;;;;;124.13;48.17;;;5.60;99.90;;;;;;4888268;29;20048;-84
2021/11/25 02:51:56;;;;;;;123.47;46.63;;;5.60;99.90;;;;;;4905843;29;20039;-86
2021/11/25 02:54:29;;;;;;;120.10;46.33;;;5.60;99.90;;;;;;4873516;29;20047;-84
2021/11/25 02:58:00;;;;;;;124.03;45.50;;;5.60;99.90;;;;;;4869300;29;20039;-85
2021/11/25 03:00:46;;;;;;;123.72;47.90;;;5.60;99.90;;;;;;4985780;23;20051;-93
2021/11/25 03:03:15;;;;;;;120.43;45.65;;;5.60;99.90;;;;;;4900325;29;20050;-93
2021/11/25 03:06:12;;;;;;;118.97;45.07;;;5.50;99.90;;;;;;4920763;29;20058;-94
2021/11/25 03:11:53;;;;;;;118.88;46.58;;;5.60;99.90;;;;;;4902367;29;20051;-95
2021/11/25 03:14:20;;;;;;;130.77;46.92;;;5.60;99.90;;;;;;4899715;29;20084;-92
2021/11/25 03:16:57;;;;;;;131.80;47.75;;;5.60;99.90;;;;;;4901544;29;20138;-94
2021/11/25 03:23:00;;;;;;;131.38;48.42;;;5.60;99.90;;;;;;4855085;29;20616;-93
2021/11/25 03:25:43;;;;;;;145.32;48.95;;;5.60;99.90;;;;;;4848354;29;20097;-94
2021/11/25 03:29:00;;;;;;;;;;;;;;;;;;;;;
2021/11/25 03:31:52;;;;;;;135.32;48.33;;;5.60;99.90;;;;;;4862643;29;20573;-94
2021/11/25 03:34:27;;;;;;;147.73;48.90;;;5.60;99.90;;;;;;4845858;29;20033;-94
2021/11/25 03:36:53;;;;;;;148.43;49.47;;;5.50;99.90;;;;;;4858644;29;20049;-96
2021/11/25 03:40:01;;;;;;;158.57;51.22;;;5.50;99.90;;;;;;4846928;29;20059;-94
2021/11/25 03:42:36;;;;;;;164.00;52.03;;;5.50;99.90;;;;;;4830016;29;20057;-94
2021/11/25 03:45:05;;;;;;;158.90;50.83;;;5.50;99.90;;;;;;4862774;29;20053;-94
2021/11/25 03:47:31;;;;;;;146.50;49.78;;;5.50;99.90;;;;;;4838666;29;20045;-93
2021/11/25 03:50:00;;;;;;;161.07;51.05;;;5.50;99.90;;;;;;4844891;29;20117;-94
2021/11/25 03:52:25;;;;;;;159.18;51.15;;;5.50;99.90;;;;;;4833479;29;20037;-94
2021/11/25 03:54:55;;;;;;;177.48;53.88;;;5.50;99.90;;;;;;4891594;29;20059;-94
2021/11/25 03:57:25;;;;;;;152.75;50.13;;;5.50;99.90;;;;;;4884297;29;20078;-93
2021/11/25 03:59:59;;;;;;;165.93;50.65;;;5.50;99.90;;;;;;4890409;29;20107;-95
2021/11/25 04:02:27;;;;;;;158.82;52.10;;;5.50;99.90;;;;;;4877371;29;20091;-94
2021/11/25 04:04:53;;;;;;;167.85;51.83;;;5.40;99.90;;;;;;4908747;29;20076;-93
2021/11/25 04:07:27;;;;;;;134.15;48.25;;;5.50;99.90;;;;;;4909501;29;20045;-94
2021/11/25 04:09:53;;;;;;;149.15;49.58;;;5.40;99.90;;;;;;4889326;29;20158;-94
2021/11/25 04:12:37;;;;;;;152.30;48.92;;;5.50;99.90;;;;;;4890856;29;20044;-93
2021/11/25 04:15:07;;;;;;;149.18;50.13;;;5.40;99.90;;;;;;4904842;29;20071;-94
2021/11/25 04:17:33;;;;;;;156.80;51.72;;;5.40;99.90;;;;;;4894742;29;20051;-94
2021/11/25 04:19:59;;;;;;;150.82;48.85;;;5.40;99.90;;;;;;4894013;29;20044;-94
2021/11/25 04:22:39;;;;;;;154.98;51.42;;;5.40;99.90;;;;;;4891466;29;20051;-96
2021/11/25 04:25:14;;;;;;;146.38;48.95;;;5.40;99.90;;;;;;4904457;29;20048;-95
2021/11/25 04:27:44;;;;;;;150.55;48.67;;;5.40;99.90;;;;;;4897576;29;20316;-96
2021/11/25 04:35:39;;;;;;;146.05;47.83;;;5.40;99.90;;;;;;4920653;29;20040;-96
2021/11/25 04:38:22;;;;;;;152.00;50.42;;;5.40;99.90;;;;;;4913883;29;20036;-93
2021/11/25 04:40:53;;;;;;;167.30;51.58;;;5.40;99.90;;;;;;4929989;29;20051;-95
2021/11/25 04:43:21;;;;;;;146.10;48.95;;;5.50;99.90;;;;;;4893195;29;20032;-93
2021/11/25 04:45:52;;;;;;;132.27;47.38;;;5.40;99.90;;;;;;4884946;29;20036;-92
2021/11/25 04:49:00;;;;;;;138.35;48.45;;;5.40;99.90;;;;;;4884962;29;20116;-93
2021/11/25 04:51:26;;;;;;;147.40;49.15;;;5.40;99.90;;;;;;4892574;29;20048;-93
2021/11/25 04:53:56;;;;;;;138.93;47.95;;;5.40;99.90;;;;;;4901675;29;20106;-93
2021/11/25 04:56:30;;;;;;;123.63;43.22;;;5.40;99.90;;;;;;4900924;29;20055;-93
2021/11/25 04:58:56;;;;;;;136.57;46.33;;;5.40;99.90;;;;;;4885239;29;20073;-93
2021/11/25 05:01:22;;;;;;;137.18;47.22;;;5.40;99.90;;;;;;4890093;29;20063;-93
2021/11/25 05:03:50;;;;;;;142.50;47.03;;;5.30;99.90;;;;;;4906131;29;20051;-92
2021/11/25 05:06:16;;;;;;;136.10;48.58;;;5.30;99.90;;;;;;4897900;29;20032;-93
2021/11/25 05:09:07;;;;;;;127.80;46.55;;;5.30;99.90;;;;;;4887283;29;20051;-93
2021/11/25 05:11:33;;;;;;;135.10;48.40;;;5.30;99.90;;;;;;4887270;29;20043;-93
2021/11/25 05:14:05;;;;;;;132.35;48.15;;;5.30;99.90;;;;;;4882217;29;20112;-93
2021/11/25 05:16:34;;;;;;;133.18;48.80;;;5.30;99.90;;;;;;4889778;29;20048;-94
2021/11/25 05:19:39;;;;;;;;;;;;;;;;;;;;;
2021/11/25 05:22:18;;;;;;;119.50;45.30;;;5.20;99.90;;;;;;4912278;29;20032;-93
2021/11/25 05:24:44;;;;;;;123.75;47.67;;;5.20;99.90;;;;;;4902720;29;20558;-93
2021/11/25 05:27:11;;;;;;;124.45;47.58;;;5.20;99.90;;;;;;4889824;29;20060;-94
2021/11/25 05:29:43;;;;;;;115.90;45.90;;;5.10;99.90;;;;;;4900536;29;20051;-92
2021/11/25 05:32:13;;;;;;;107.45;46.05;;;5.10;99.90;;;;;;4879206;29;20048;-92
2021/11/25 05:34:45;;;;;;;105.03;45.92;;;5.10;99.90;;;;;;4885639;29;20035;-95
2021/11/25 05:37:29;;;;;;;109.90;46.17;;;5.00;99.90;;;;;;4901586;29;20063;-92
2021/11/25 05:40:07;;;;;;;108.90;46.28;;;4.90;99.90;;;;;;4888191;29;20036;-94
2021/11/25 05:42:45;;;;;;;107.30;46.38;;;4.90;99.90;;;;;;4888826;29;20048;-93
2021/11/25 05:45:24;;;;;;;117.07;48.65;;;4.80;99.90;;;;;;4886561;29;20183;-93
2021/11/25 05:48:11;;;;;;;112.78;48.17;;;4.80;99.90;;;;;;4909313;29;20116;-95
2021/11/25 05:50:37;;;;;;;120.93;48.53;;;4.80;99.90;;;;;;4914463;29;20054;-95
2021/11/25 05:53:09;;;;;;;111.53;48.92;;;4.70;99.90;;;;;;4885412;29;20051;-93
2021/11/25 05:55:55;;;;;;;115.07;51.63;;;4.70;99.90;;;;;;4888975;29;20095;-93
2021/11/25 05:58:21;;;;;;;110.55;48.03;;;4.60;99.90;;;;;;4889166;29;20112;-94
2021/11/25 06:00:49;;;;;;;128.63;50.42;;;4.60;99.90;;;;;;4906804;29;20059;-94
2021/11/25 06:03:19;;;;;;;117.85;52.17;;;4.60;99.90;;;;;;4914654;29;20060;-95
2021/11/25 06:06:00;;;;;;;126.22;52.70;;;4.60;99.90;;;;;;4876652;29;20048;-94
2021/11/25 06:08:26;;;;;;;121.43;52.22;;;4.60;99.90;;;;;;4906409;29;20210;-94
2021/11/25 06:10:56;;;;;;;122.45;53.30;;;4.50;99.90;;;;;;4905246;29;20039;-94
2021/11/25 06:13:22;;;;;;;125.43;52.72;;;4.50;99.90;;;;;;4899601;29;20052;-94
2021/11/25 06:16:49;;;;;;;118.50;53.53;;;4.50;99.90;;;;;;4902564;29;20229;-94
2021/11/25 06:19:53;;;;;;;117.10;54.45;;;4.50;99.90;;;;;;4882315;29;20052;-93
2021/11/25 06:22:19;;;;;;;125.05;52.85;;;4.50;99.90;;;;;;4891406;29;20080;-94
2021/11/25 06:24:45;;;;;;;119.75;54.25;;;4.50;99.90;;;;;;4905512;29;20048;-95
2021/11/25 06:27:19;;;;;;;123.35;54.38;;;4.50;99.90;;;;;;4913854;29;20139;-94
2021/11/25 06:29:45;;;;;;;123.78;54.58;;;4.50;99.90;;;;;;4896007;29;20058;-95
2021/11/25 06:32:16;;;;;;;121.70;55.53;;;4.50;99.90;;;;;;4896420;29;20040;-94
2021/11/25 06:35:15;;;;;;;;;;;;;;;;;;;;;
2021/11/25 06:37:48;;;;;;;112.43;52.50;;;4.50;99.90;;;;;;4931604;28;20080;-94
2021/11/25 06:40:17;;;;;;;111.40;53.65;;;4.60;99.90;;;;;;4896360;29;20033;-94
2021/11/25 06:42:44;;;;;;;105.43;51.22;;;4.60;99.90;;;;;;4912323;29;20092;-94
2021/11/25 06:45:10;;;;;;;110.43;53.63;;;4.60;99.90;;;;;;4904343;29;20094;-94
2021/11/25 06:47:36;;;;;;;104.70;52.00;;;4.60;99.90;;;;;;4903277;29;20037;-96
2021/11/25 06:50:08;;;;;;;116.10;55.70;;;4.60;99.90;;;;;;4878737;29;20111;-94
2021/11/25 06:52:35;;;;;;;101.88;53.75;;;4.60;99.90;;;;;;4910892;29;20145;-93
2021/11/25 06:55:04;;;;;;;99.57;51.72;;;4.60;99.90;;;;;;4913004;29;20048;-95
2021/11/25 06:57:30;;;;;;;100.18;51.60;;;4.60;99.90;;;;;;4886543;29;20043;-94
2021/11/25 06:59:59;;;;;;;104.22;53.67;;;4.70;99.90;;;;;;4896128;29;20059;-94
2021/11/25 07:02:28;;;;;;;104.60;52.60;;;4.70;99.90;;;;;;4910833;29;20084;-96
2021/11/25 07:04:57;;;;;;;104.60;53.55;;;4.60;99.90;;;;;;4910669;29;20072;-94
2021/11/25 07:07:23;;;;;;;105.68;53.33;;;4.70;99.90;;;;;;4884113;29;20071;-95
2021/11/25 07:09:49;;;;;;;109.22;53.58;;;4.70;99.90;;;;;;4899470;29;20067;-94
2021/11/25 07:12:38;;;;;;;;;;;;;;;;;;;;;
2021/11/25 07:15:08;;;;;;;;;;;4.80;99.90;;;;;;4903062;29;20168;-93
2021/11/25 07:17:34;;;;;;;108.05;52.83;;;4.80;99.90;;;;;;4914693;29;19991;-94
2021/11/25 07:20:02;;;;;;;102.55;52.65;;;4.80;99.90;;;;;;4916515;29;20040;-93
2021/11/25 07:22:38;;;;;;;104.28;51.72;;;4.80;99.90;;;;;;4914954;29;20080;-94
2021/11/25 07:25:06;;;;;;;108.10;53.30;;;4.80;99.90;;;;;;4891018;29;20036;-93
2021/11/25 07:28:24;;;;;;;103.63;52.28;;;4.80;99.90;;;;;;4906270;29;20063;-96
2021/11/25 07:32:01;;;;;;;105.20;51.00;;;4.80;99.90;;;;;;4856457;29;20044;-93
2021/11/25 07:53:14;;;;;;;103.10;50.95;;;4.90;99.90;;;;;;4865243;29;20156;-95
2021/11/25 07:56:18;;;;;;;109.57;54.40;;;5.00;99.90;;;;;;4849010;29;20128;-95
2021/11/25 08:03:15;;;;;;;117.93;53.30;;;5.00;99.90;;;;;;4870296;29;20530;-92
2021/11/25 08:06:35;;;;;;;113.45;53.70;;;5.20;99.90;;;;;;4917574;29;20060;-94
2021/11/25 08:09:19;;;;;;;111.65;55.78;;;5.00;99.90;;;;;;4900467;23;20064;-86
2021/11/25 08:11:46;;;;;;;102.85;52.72;;;5.10;99.90;;;;;;4885547;29;20044;-84
2021/11/25 08:14:15;;;;;;;119.80;56.15;;;5.10;99.90;;;;;;4898008;29;20046;-85
2021/11/25 08:17:20;;;;;;;117.53;55.92;;;5.10;99.90;;;;;;4884468;29;20123;-87
2021/11/25 08:20:16;;;;;;;117.57;56.20;;;5.10;99.90;;;;;;4890982;29;20118;-85
2021/11/25 08:22:46;;;;;;;129.43;58.85;;;5.10;99.90;;;;;;4928250;29;20094;-85
2021/11/25 08:25:59;;;;;;;143.23;59.53;;;5.10;99.90;;;;;;4901348;29;20415;-86
2021/11/25 08:28:29;;;;;;;136.13;58.65;;;5.10;99.90;;;;;;4908901;29;20491;-86
2021/11/25 08:30:58;;;;;;;138.77;58.88;;;5.10;99.90;;;;;;4909272;29;20079;-85
2021/11/25 08:33:30;;;;;;;135.55;58.10;;;5.10;99.90;;;;;;4879336;29;20059;-86
2021/11/25 08:35:56;;;;;;;137.65;58.78;;;5.10;99.90;;;;;;4893891;29;20043;-86
2021/11/25 08:38:22;;;;;;;140.55;58.70;;;5.10;99.90;;;;;;4916126;29;20431;-86
2021/11/25 08:40:48;;;;;;;137.25;59.15;;;5.10;99.90;;;;;;4889906;29;20437;-85
2021/11/25 08:43:14;;;;;;;144.43;60.75;;;5.10;99.90;;;;;;4893540;29;20039;-86
2021/11/25 08:45:40;;;;;;;136.63;56.28;;;5.10;99.90;;;;;;4895680;29;20602;-84
2021/11/25 08:48:07;;;;;;;142.95;60.22;;;5.10;99.90;;;;;;4867324;29;20064;-85
2021/11/25 08:50:57;;;;;;;;;;;;;;;;;;;;;
2021/11/25 08:53:23;;;;;;;137.20;59.67;;;5.20;99.90;;;;;;4907580;29;20040;-84
2021/11/25 08:55:50;;;;;;;135.48;58.90;;;5.20;99.90;;;;;;4863241;29;20035;-85
2021/11/25 08:58:16;;;;;;;136.77;60.40;;;5.20;99.90;;;;;;4908761;29;20048;-85
2021/11/25 09:00:44;;;;;;;144.65;59.25;;;5.20;99.90;;;;;;4876224;29;20407;-86
2021/11/25 09:03:10;;;;;;;149.77;61.05;;;5.20;99.90;;;;;;4899270;29;20402;-85
2021/11/25 09:05:37;;;;;;;133.32;58.90;;;5.20;99.90;;;;;;4865358;29;20704;-87
2021/11/25 09:08:03;;;;;;;132.52;58.40;;;5.20;99.90;;;;;;4871337;29;20048;-86
2021/11/25 09:10:33;;;;;;;146.55;59.35;;;5.20;99.90;;;;;;4895007;29;20028;-86
2021/11/25 09:13:07;;;;;;;149.10;60.10;;;5.20;99.90;;;;;;4898746;29;20040;-86
2021/11/25 09:15:42;;;;;;;160.63;63.22;;;5.20;99.90;;;;;;4900934;29;20048;-85
2021/11/25 09:18:11;;;;;;;168.55;63.83;;;5.30;99.90;;;;;;4882827;29;20452;-84
2021/11/25 09:20:41;;;;;;;179.90;65.15;;;5.30;99.90;;;;;;4893857;29;20055;-86
2021/11/25 09:23:15;;;;;;;178.38;65.25;;;5.30;99.90;;;;;;4877423;29;20056;-85
2021/11/25 09:25:43;;;;;;;163.13;63.13;;;5.30;99.90;;;;;;4922682;29;20036;-85
2021/11/25 09:28:18;;;;;;;181.82;66.00;;;5.30;99.90;;;;;;4894214;29;20050;-85
2021/11/25 09:31:13;;;;;;;169.85;66.60;;;5.40;99.90;;;;;;4887495;29;20399;-87
2021/11/25 09:33:46;;;;;;;164.75;64.78;;;5.40;99.90;;;;;;4896588;29;20309;-86
2021/11/25 09:36:12;;;;;;;180.07;64.00;;;5.40;99.90;;;;;;4871540;29;20042;-85
2021/11/25 09:38:38;;;;;;;176.70;63.58;;;5.50;99.90;;;;;;4914784;29;20047;-86
2021/11/25 09:41:15;;;;;;;190.00;68.10;;;5.50;99.90;;;;;;4877972;29;20036;-87
2021/11/25 09:43:52;;;;;;;205.48;69.00;;;5.50;99.90;;;;;;4897824;29;20043;-85
2021/11/25 09:46:21;;;;;;;214.35;69.97;;;5.60;99.90;;;;;;4898089;29;20035;-86
2021/11/25 09:48:47;;;;;;;221.23;71.97;;;5.60;99.90;;;;;;4908404;29;20052;-88
2021/11/25 09:51:15;;;;;;;228.10;69.90;;;5.60;99.90;;;;;;4887427;29;20054;-88
2021/11/25 09:53:41;;;;;;;229.82;70.15;;;5.70;99.90;;;;;;4893633;29;20054;-82
2021/11/25 09:56:11;;;;;;;276.70;73.25;;;5.70;99.90;;;;;;4894056;29;20127;-85
2021/11/25 09:58:38;;;;;;;232.13;71.35;;;5.70;99.90;;;;;;4909069;29;20051;-86
2021/11/25 10:01:12;;;;;;;289.35;75.30;;;5.70;99.90;;;;;;4876405;29;20479;-84
2021/11/25 10:03:42;;;;;;;230.75;71.75;;;5.80;99.90;;;;;;4895706;29;20039;-85
2021/11/25 10:06:11;;;;;;;215.68;68.40;;;5.80;99.90;;;;;;4880221;29;20212;-86
2021/11/25 10:08:48;;;;;;;212.35;67.20;;;5.80;99.90;;;;;;4881768;29;20035;-86
2021/11/25 10:11:31;;;;;;;259.95;71.70;;;5.80;99.90;;;;;;4894261;29;20040;-86
2021/11/25 10:14:07;;;;;;;238.15;68.25;;;5.90;99.90;;;;;;4929284;29;20511;-85
2021/11/25 10:16:46;;;;;;;240.35;70.00;;;5.90;99.90;;;;;;4896795;29;20399;-85
2021/11/25 10:19:16;;;;;;;244.32;71.55;;;6.10;99.90;;;;;;4910433;29;20051;-85
2021/11/25 10:21:52;;;;;;;219.65;68.55;;;6.10;99.90;;;;;;4902124;29;20040;-83
2021/11/25 10:24:40;;;;;;;235.60;72.47;;;6.20;99.90;;;;;;4895795;29;20036;-85
2021/11/25 10:27:46;;;;;;;254.35;73.05;;;6.30;99.90;;;;;;4897989;29;20078;-86
2021/11/25 10:30:27;;;;;;;220.77;69.80;;;6.40;99.90;;;;;;4868365;29;20033;-87
2021/11/25 10:33:00;;;;;;;191.48;67.40;;;6.60;99.90;;;;;;4889116;29;20051;-88
2021/11/25 10:35:35;;;;;;;173.68;64.28;;;6.80;99.90;;;;;;4883668;29;20130;-86
2021/11/25 10:40:36;;;;;;;144.70;57.25;;;7.00;99.90;;;;;;4888478;29;20047;-86
2021/11/25 10:43:23;;;;;;;169.45;61.03;;;7.00;99.90;;;;;;4896512;29;20450;-85
2021/11/25 10:45:55;;;;;;;158.70;57.97;;;7.00;99.90;;;;;;4913970;29;20625;-84
2021/11/25 10:48:25;;;;;;;;;;;7.00;99.90;;;;;;4912812;29;20036;-87
2021/11/25 10:51:25;;;;;;;139.20;53.80;;;6.90;99.90;;;;;;4910324;29;19925;-88
2021/11/25 10:54:24;;;;;;;131.82;54.42;;;6.90;99.90;;;;;;4911493;29;20069;-86
2021/11/25 10:56:55;;;;;;;130.43;53.97;;;6.90;99.90;;;;;;4847312;29;20508;-87
2021/11/25 10:59:37;;;;;;;139.30;53.13;;;6.80;99.90;;;;;;4867313;29;20454;-87
2021/11/25 11:02:29;;;;;;;151.38;54.90;;;6.80;99.90;;;;;;4900899;29;20190;-84
2021/11/25 11:05:27;;;;;;;155.73;57.83;;;6.80;99.90;;;;;;4885303;29;20044;-85
2021/11/25 11:08:14;;;;;;;138.07;55.38;;;6.80;99.90;;;;;;4914369;29;20056;-85
2021/11/25 11:11:16;;;;;;;140.73;54.25;;;6.90;99.90;;;;;;4911747;29;20121;-86
2021/11/25 11:17:33;;;;;;;136.93;53.50;;;7.00;99.90;;;;;;4868223;29;20040;-86
2021/11/25 11:20:17;;;;;;;140.55;51.67;;;7.10;99.90;;;;;;4847507;29;20526;-86
2021/11/25 11:23:06;;;;;;;113.60;47.05;;;7.10;99.90;;;;;;4909091;29;20043;-86
2021/11/25 11:25:42;;;;;;;115.07;48.35;;;7.10;99.90;;;;;;4884016;29;20039;-86
2021/11/25 11:28:15;;;;;;;115.05;47.75;;;7.10;99.90;;;;;;4887944;29;20110;-85
2021/11/25 11:30:41;;;;;;;117.18;48.35;;;7.20;99.90;;;;;;4911743;29;20126;-85
2021/11/25 11:33:13;;;;;;;113.75;47.70;;;7.20;99.90;;;;;;4906055;29;20046;-87
2021/11/25 11:35:57;;;;;;;98.57;43.83;;;7.30;99.90;;;;;;4899060;29;20047;-86
2021/11/25 11:38:45;;;;;;;117.20;46.42;;;7.30;99.90;;;;;;4898556;29;20118;-86
2021/11/25 11:41:18;;;;;;;103.38;42.33;;;7.30;99.90;;;;;;4907937;29;20474;-87
2021/11/25 11:43:44;;;;;;;116.53;44.17;;;7.40;99.90;;;;;;4888050;29;20043;-86
2021/11/25 11:46:22;;;;;;;117.50;43.90;;;7.40;99.90;;;;;;4904192;29;20042;-87
2021/11/25 11:48:50;;;;;;;101.22;41.95;;;7.40;99.90;;;;;;4889485;29;20322;-86
2021/11/25 11:51:22;;;;;;;99.85;41.50;;;7.50;99.90;;;;;;4872512;29;20384;-86
2021/11/25 11:54:25;;;;;;;99.32;40.45;;;7.50;99.90;;;;;;4905614;29;20110;-87
2021/11/25 11:56:56;;;;;;;92.40;40.33;;;7.50;99.90;;;;;;4902208;29;20059;-86
2021/11/25 11:59:38;;;;;;;87.38;37.88;;;7.50;99.90;;;;;;4871958;29;20039;-90
2021/11/25 12:02:06;;;;;;;88.45;39.50;;;7.60;99.90;;;;;;4897052;29;20051;-87
2021/11/25 12:04:45;;;;;;;95.50;39.90;;;7.60;99.90;;;;;;4888789;29;20051;-87
2021/11/25 12:07:46;;;;;;;89.93;37.90;;;7.60;99.90;;;;;;4890523;29;20047;-84
2021/11/25 12:10:12;;;;;;;71.93;33.78;;;7.70;99.90;;;;;;4910089;29;20482;-89
2021/11/25 12:13:16;;;;;;;85.38;36.67;;;7.80;99.90;;;;;;4889244;29;20036;-86
2021/11/25 12:16:12;;;;;;;72.22;33.33;;;8.10;99.90;;;;;;4835949;29;20120;-85
2021/11/25 12:18:40;;;;;;;70.07;29.83;;;8.30;99.90;;;;;;4854206;29;20045;-88
2021/11/25 12:21:12;;;;;;;62.10;27.45;;;8.40;99.90;;;;;;4893248;29;20324;-87
2021/11/25 12:23:48;;;;;;;58.85;26.90;;;8.40;99.90;;;;;;4887068;29;20050;-87
2021/11/25 12:26:14;;;;;;;53.28;26.30;;;8.30;99.90;;;;;;4907801;29;20044;-86
2021/11/25 12:28:42;;;;;;;52.20;24.30;;;8.20;99.90;;;;;;4906559;29;20562;-85
2021/11/25 12:33:54;;;;;;;51.38;23.77;;;8.10;99.90;;;;;;4922815;29;20499;-86
2021/11/25 12:36:49;;;;;;;52.28;22.98;;;8.00;99.90;;;;;;4865627;29;20044;-85
2021/11/25 12:39:51;;;;;;;;;;;;;;;;;;;;;
2021/11/25 12:42:51;;;;;;;47.15;20.38;;;7.90;99.90;;;;;;4912653;29;20044;-87
2021/11/25 12:48:55;;;;;;;39.75;16.67;;;8.10;99.90;;;;;;4911375;29;20048;-86
2021/11/25 12:51:39;;;;;;;;;;;;;;;;;;;;;
2021/11/25 12:54:21;;;;;;;43.05;18.08;;;8.40;99.90;;;;;;4919361;29;20090;-85
2021/11/25 12:57:09;;;;;;;44.17;18.65;;;8.60;99.90;;;;;;4910080;29;20051;-86
2021/11/25 13:00:38;;;;;;;46.00;17.40;;;8.80;99.90;;;;;;4878417;29;20039;-85
2021/11/25 13:03:27;;;;;;;44.92;15.15;;;8.80;99.90;;;;;;4924423;29;20043;-85
2021/11/25 13:06:42;;;;;;;36.20;14.02;;;8.80;99.90;;;;;;4881985;29;20443;-85
2021/11/25 13:12:10;;;;;;;10.65;3.58;;;8.70;99.90;;;;;;4996728;23;20426;-86
2021/11/25 13:15:02;;;;;;;8.95;2.40;;;8.60;99.90;;;;;;4921337;28;20061;-86
2021/11/25 13:17:38;;;;;;;16.52;2.53;;;8.50;99.90;;;;;;4936487;28;20063;-86
2021/11/25 13:20:04;;;;;;;10.43;1.83;;;8.40;99.90;;;;;;4945760;28;20039;-85
2021/11/25 13:22:31;;;;;;;9.57;1.50;;;8.30;99.90;;;;;;4909980;28;20081;-87
2021/11/25 13:25:55;;;;;;;;;;;;;;;;;;;;;
2021/11/25 13:29:18;;;;;;;13.65;1.55;;;8.20;99.90;;;;;;4880850;29;20080;-87
2021/11/25 13:31:54;;;;;;;10.00;1.40;;;8.10;99.90;;;;;;4853790;29;20108;-86
2021/11/25 13:34:35;;;;;;;9.82;1.30;;;8.10;99.90;;;;;;4890714;29;20047;-86
2021/11/25 13:37:26;;;;;;;13.07;1.63;;;8.00;99.90;;;;;;4879043;29;20141;-86
2021/11/25 13:40:22;;;;;;;7.82;1.55;;;7.90;99.90;;;;;;4937098;28;20049;-87
2021/11/25 13:43:26;;;;;;;14.38;1.80;;;7.80;99.90;;;;;;4915407;29;20077;-85
2021/11/25 13:50:18;;;;;;;7.63;1.25;;;7.70;99.90;;;;;;4875370;29;20099;-88
2021/11/25 13:53:28;;;;;;;10.57;0.90;;;7.60;99.90;;;;;;4791135;29;20042;-87
2021/11/25 13:56:11;;;;;;;8.93;1.20;;;7.50;99.90;;;;;;4867715;29;20115;-86
2021/11/25 13:58:44;;;;;;;14.68;1.35;;;7.40;99.90;;;;;;4854282;29;20090;-86
2021/11/25 14:01:16;;;;;;;11.48;1.42;;;7.40;99.90;;;;;;4870837;29;20104;-88
2021/11/25 14:03:50;;;;;;;12.82;1.45;;;7.30;99.90;;;;;;4922176;28;20051;-87
2021/11/25 14:09:54;;;;;;;10.23;1.20;;;7.20;99.90;;;;;;4913179;29;20047;-87
2021/11/25 14:13:27;;;;;;;13.65;2.13;;;7.10;99.90;;;;;;4911825;29;20130;-87
2021/11/25 14:58:45;;;;;;;15.52;3.90;;;6.50;99.90;;;;;;4956997;28;20458;-85
2021/11/25 15:01:51;;;;;;;11.30;1.93;;;6.50;99.90;;;;;;4939849;28;20568;-86
2021/11/25 15:04:52;;;;;;;8.52;1.30;;;6.40;99.90;;;;;;4916916;28;20058;-85
2021/11/25 15:11:38;;;;;;;12.63;1.20;;;6.30;99.90;;;;;;4891629;29;20070;-87
2021/11/25 15:14:44;;;;;;;7.10;1.10;;;6.10;99.90;;;;;;4879985;29;20258;-87
2021/11/25 15:25:45;;;;;;;;;;;;;;;;;;;;;
2021/11/25 15:36:21;;;;;;;12.10;2.17;;;5.50;99.90;;;;;;4795230;29;20051;-85
2021/11/25 15:42:04;;;;;;;8.30;1.67;;;5.30;99.90;;;;;;4766847;29;20046;-85